New Matamoras, Ohio
Current Conditions -  °F | °C
As of 12:53 PM on Saturday 27 Dec 2014 (Local Time) from KPKB Reporting Station
Overcast Overcast  
Wind Chill: 13°   Ceiling: 10000
Heat Index: 13°   Visibility: 10mi
Dew Point: -1°   Wind: 13mph
Humidity: 39%   Direction: 190°S
Pressure: 30.21"   Gusts: 20mph
Location:  39.52°N, 81.07°W
Report Text: KPKB 271753Z 19011G17KT 10SM OVC100 13/M01 A3021 RMK AO2 SLP232 T01331006 10139 20011 58029
Loading
Personal Weather Stations






























Interactive Weather Map New forecast layout! Learn more

10-Day Weather Forecast

Advertisements
Track Severe Weather on mobile